sensor_id;sensor_type;location;lat;lon;timestamp;temperature;humidity
8820;DHT22;4446;50.876;4.736;2024-02-26T00:00:19;6.30;99.90
8820;DHT22;4446;50.876;4.736;2024-02-26T00:02:46;6.30;99.90
8820;DHT22;4446;50.876;4.736;2024-02-26T00:05:14;6.30;99.90
8820;DHT22;4446;50.876;4.736;2024-02-26T00:07:41;6.30;99.90
8820;DHT22;4446;50.876;4.736;2024-02-26T00:10:09;6.30;99.90
8820;DHT22;4446;50.876;4.736;2024-02-26T00:12:36;6.30;99.90
8820;DHT22;4446;50.876;4.736;2024-02-26T00:15:05;6.20;99.90
8820;DHT22;4446;50.876;4.736;2024-02-26T00:17:32;6.20;99.90
8820;DHT22;4446;50.876;4.736;2024-02-26T00:19:59;6.20;99.90
8820;DHT22;4446;50.876;4.736;2024-02-26T00:22:27;6.20;99.90
8820;DHT22;4446;50.876;4.736;2024-02-26T00:24:54;6.20;99.90
8820;DHT22;4446;50.876;4.736;2024-02-26T00:27:21;6.20;99.90
8820;DHT22;4446;50.876;4.736;2024-02-26T00:29:48;6.20;99.90
8820;DHT22;4446;50.876;4.736;2024-02-26T00:32:15;6.20;99.90
8820;DHT22;4446;50.876;4.736;2024-02-26T00:34:42;6.20;99.90
8820;DHT22;4446;50.876;4.736;2024-02-26T00:37:09;6.20;99.90
8820;DHT22;4446;50.876;4.736;2024-02-26T00:39:37;6.20;99.90
8820;DHT22;4446;50.876;4.736;2024-02-26T00:42:05;6.10;99.90
8820;DHT22;4446;50.876;4.736;2024-02-26T00:44:32;6.20;99.90
8820;DHT22;4446;50.876;4.736;2024-02-26T00:46:59;6.10;99.90
8820;DHT22;4446;50.876;4.736;2024-02-26T00:49:25;6.10;99.90
8820;DHT22;4446;50.876;4.736;2024-02-26T00:51:52;6.10;99.90
8820;DHT22;4446;50.876;4.736;2024-02-26T00:54:20;6.10;99.90
8820;DHT22;4446;50.876;4.736;2024-02-26T00:56:48;6.10;99.90
8820;DHT22;4446;50.876;4.736;2024-02-26T00:59:15;6.10;99.90
8820;DHT22;4446;50.876;4.736;2024-02-26T01:01:42;6.10;99.90
8820;DHT22;4446;50.876;4.736;2024-02-26T01:04:09;6.10;99.90
8820;DHT22;4446;50.876;4.736;2024-02-26T01:06:36;6.10;99.90
8820;DHT22;4446;50.876;4.736;2024-02-26T01:09:02;6.10;99.90
8820;DHT22;4446;50.876;4.736;2024-02-26T01:11:29;6.10;99.90
8820;DHT22;4446;50.876;4.736;2024-02-26T01:13:57;6.10;99.90
8820;DHT22;4446;50.876;4.736;2024-02-26T01:16:24;6.10;99.90
8820;DHT22;4446;50.876;4.736;2024-02-26T01:18:51;6.10;99.90
8820;DHT22;4446;50.876;4.736;2024-02-26T01:21:18;6.10;99.90
8820;DHT22;4446;50.876;4.736;2024-02-26T01:23:45;6.10;99.90
8820;DHT22;4446;50.876;4.736;2024-02-26T01:26:13;6.10;99.90
8820;DHT22;4446;50.876;4.736;2024-02-26T01:28:40;6.10;99.90
8820;DHT22;4446;50.876;4.736;2024-02-26T01:31:09;6.10;99.90
8820;DHT22;4446;50.876;4.736;2024-02-26T01:33:36;6.00;99.90
8820;DHT22;4446;50.876;4.736;2024-02-26T01:36:04;6.00;99.90
8820;DHT22;4446;50.876;4.736;2024-02-26T01:38:30;6.00;99.90
8820;DHT22;4446;50.876;4.736;2024-02-26T01:40:57;6.00;99.90
8820;DHT22;4446;50.876;4.736;2024-02-26T01:43:24;6.00;99.90
8820;DHT22;4446;50.876;4.736;2024-02-26T01:45:51;6.00;99.90
8820;DHT22;4446;50.876;4.736;2024-02-26T01:48:20;6.00;99.90
8820;DHT22;4446;50.876;4.736;2024-02-26T01:50:46;6.10;99.90
8820;DHT22;4446;50.876;4.736;2024-02-26T01:53:14;6.00;99.90
8820;DHT22;4446;50.876;4.736;2024-02-26T01:55:42;6.00;99.90
8820;DHT22;4446;50.876;4.736;2024-02-26T01:58:09;6.00;99.90
8820;DHT22;4446;50.876;4.736;2024-02-26T02:00:36;6.00;99.90
8820;DHT22;4446;50.876;4.736;2024-02-26T02:03:04;6.00;99.90
8820;DHT22;4446;50.876;4.736;2024-02-26T02:05:33;6.00;99.90
8820;DHT22;4446;50.876;4.736;2024-02-26T02:08:00;6.00;99.90
8820;DHT22;4446;50.876;4.736;2024-02-26T02:10:29;6.00;99.90
8820;DHT22;4446;50.876;4.736;2024-02-26T02:12:56;6.00;99.90
8820;DHT22;4446;50.876;4.736;2024-02-26T02:15:23;6.00;99.90
8820;DHT22;4446;50.876;4.736;2024-02-26T02:17:50;6.00;99.90
8820;DHT22;4446;50.876;4.736;2024-02-26T02:20:18;6.00;99.90
8820;DHT22;4446;50.876;4.736;2024-02-26T02:22:46;6.00;99.90
8820;DHT22;4446;50.876;4.736;2024-02-26T02:25:14;6.00;99.90
8820;DHT22;4446;50.876;4.736;2024-02-26T02:27:42;6.00;99.90
8820;DHT22;4446;50.876;4.736;2024-02-26T02:30:11;6.00;99.90
8820;DHT22;4446;50.876;4.736;2024-02-26T02:32:39;6.00;99.90
8820;DHT22;4446;50.876;4.736;2024-02-26T02:35:07;6.00;99.90
8820;DHT22;4446;50.876;4.736;2024-02-26T02:37:34;6.00;99.90
8820;DHT22;4446;50.876;4.736;2024-02-26T02:40:03;6.00;99.90
8820;DHT22;4446;50.876;4.736;2024-02-26T02:42:30;6.00;99.90
8820;DHT22;4446;50.876;4.736;2024-02-26T02:44:57;6.00;99.90
8820;DHT22;4446;50.876;4.736;2024-02-26T02:47:24;5.90;99.90
8820;DHT22;4446;50.876;4.736;2024-02-26T02:49:51;5.90;99.90
8820;DHT22;4446;50.876;4.736;2024-02-26T02:52:18;5.90;99.90
8820;DHT22;4446;50.876;4.736;2024-02-26T02:54:45;5.90;99.90
8820;DHT22;4446;50.876;4.736;2024-02-26T02:57:14;5.90;99.90
8820;DHT22;4446;50.876;4.736;2024-02-26T02:59:41;5.90;99.90
8820;DHT22;4446;50.876;4.736;2024-02-26T03:02:07;5.90;99.90
8820;DHT22;4446;50.876;4.736;2024-02-26T03:04:34;5.90;99.90
8820;DHT22;4446;50.876;4.736;2024-02-26T03:07:01;5.90;99.90
8820;DHT22;4446;50.876;4.736;2024-02-26T03:09:28;5.90;99.90
8820;DHT22;4446;50.876;4.736;2024-02-26T03:11:55;5.90;99.90
8820;DHT22;4446;50.876;4.736;2024-02-26T03:14:24;5.90;99.90
8820;DHT22;4446;50.876;4.736;2024-02-26T03:16:53;5.90;99.90
8820;DHT22;4446;50.876;4.736;2024-02-26T03:19:20;5.90;99.90
8820;DHT22;4446;50.876;4.736;2024-02-26T03:21:47;5.90;99.90
8820;DHT22;4446;50.876;4.736;2024-02-26T03:24:14;5.90;99.90
8820;DHT22;4446;50.876;4.736;2024-02-26T03:26:41;5.90;99.90
8820;DHT22;4446;50.876;4.736;2024-02-26T03:29:08;5.90;99.90
8820;DHT22;4446;50.876;4.736;2024-02-26T03:31:37;5.90;99.90
8820;DHT22;4446;50.876;4.736;2024-02-26T03:34:04;5.90;99.90
8820;DHT22;4446;50.876;4.736;2024-02-26T03:36:31;5.90;99.90
8820;DHT22;4446;50.876;4.736;2024-02-26T03:38:58;5.90;99.90
8820;DHT22;4446;50.876;4.736;2024-02-26T03:41:25;5.90;99.90
8820;DHT22;4446;50.876;4.736;2024-02-26T03:43:52;5.90;99.90
8820;DHT22;4446;50.876;4.736;2024-02-26T03:46:19;5.90;99.90
8820;DHT22;4446;50.876;4.736;2024-02-26T03:48:47;5.80;99.90
8820;DHT22;4446;50.876;4.736;2024-02-26T03:51:14;5.80;99.90
8820;DHT22;4446;50.876;4.736;2024-02-26T03:53:41;5.80;99.90
8820;DHT22;4446;50.876;4.736;2024-02-26T03:56:08;5.90;99.90
8820;DHT22;4446;50.876;4.736;2024-02-26T03:58:35;5.80;99.90
8820;DHT22;4446;50.876;4.736;2024-02-26T04:01:02;5.80;99.90
8820;DHT22;4446;50.876;4.736;2024-02-26T04:03:29;5.80;99.90
8820;DHT22;4446;50.876;4.736;2024-02-26T04:05:57;5.80;99.90
8820;DHT22;4446;50.876;4.736;2024-02-26T04:08:24;5.80;99.90
8820;DHT22;4446;50.876;4.736;2024-02-26T04:10:51;5.80;99.90
8820;DHT22;4446;50.876;4.736;2024-02-26T04:13:19;5.80;99.90
8820;DHT22;4446;50.876;4.736;2024-02-26T04:15:46;5.80;99.90
8820;DHT22;4446;50.876;4.736;2024-02-26T04:18:13;5.80;99.90
8820;DHT22;4446;50.876;4.736;2024-02-26T04:20:40;5.80;99.90
8820;DHT22;4446;50.876;4.736;2024-02-26T04:23:09;5.80;99.90
8820;DHT22;4446;50.876;4.736;2024-02-26T04:25:36;5.80;99.90
8820;DHT22;4446;50.876;4.736;2024-02-26T04:28:03;5.80;99.90
8820;DHT22;4446;50.876;4.736;2024-02-26T04:30:30;5.80;99.90
8820;DHT22;4446;50.876;4.736;2024-02-26T04:32:57;5.80;99.90
8820;DHT22;4446;50.876;4.736;2024-02-26T04:35:24;5.80;99.90
8820;DHT22;4446;50.876;4.736;2024-02-26T04:37:51;5.80;99.90
8820;DHT22;4446;50.876;4.736;2024-02-26T04:40:20;5.80;99.90
8820;DHT22;4446;50.876;4.736;2024-02-26T04:42:46;5.80;99.90
8820;DHT22;4446;50.876;4.736;2024-02-26T04:45:13;5.80;99.90
8820;DHT22;4446;50.876;4.736;2024-02-26T04:47:40;5.80;99.90
8820;DHT22;4446;50.876;4.736;2024-02-26T04:50:08;5.80;99.90
8820;DHT22;4446;50.876;4.736;2024-02-26T04:52:35;5.80;99.90
8820;DHT22;4446;50.876;4.736;2024-02-26T04:55:02;5.80;99.90
8820;DHT22;4446;50.876;4.736;2024-02-26T04:57:30;5.80;99.90
8820;DHT22;4446;50.876;4.736;2024-02-26T04:59:57;5.80;99.90
8820;DHT22;4446;50.876;4.736;2024-02-26T05:02:24;5.80;99.90
8820;DHT22;4446;50.876;4.736;2024-02-26T05:04:51;5.80;99.90
8820;DHT22;4446;50.876;4.736;2024-02-26T05:07:18;5.80;99.90
8820;DHT22;4446;50.876;4.736;2024-02-26T05:09:46;5.80;99.90
8820;DHT22;4446;50.876;4.736;2024-02-26T05:12:15;5.80;99.90
8820;DHT22;4446;50.876;4.736;2024-02-26T05:14:43;5.80;99.90
8820;DHT22;4446;50.876;4.736;2024-02-26T05:17:10;5.80;99.90
8820;DHT22;4446;50.876;4.736;2024-02-26T05:19:37;5.80;99.90
8820;DHT22;4446;50.876;4.736;2024-02-26T05:22:04;5.80;99.90
8820;DHT22;4446;50.876;4.736;2024-02-26T05:24:31;5.80;99.90
8820;DHT22;4446;50.876;4.736;2024-02-26T05:26:58;5.80;99.90
8820;DHT22;4446;50.876;4.736;2024-02-26T05:29:26;5.80;99.90
8820;DHT22;4446;50.876;4.736;2024-02-26T05:31:54;5.80;99.90
8820;DHT22;4446;50.876;4.736;2024-02-26T05:34:21;5.80;99.90
8820;DHT22;4446;50.876;4.736;2024-02-26T05:36:48;5.80;99.90
8820;DHT22;4446;50.876;4.736;2024-02-26T05:39:15;5.80;99.90
8820;DHT22;4446;50.876;4.736;2024-02-26T05:41:42;5.80;99.90
8820;DHT22;4446;50.876;4.736;2024-02-26T05:44:11;5.80;99.90
8820;DHT22;4446;50.876;4.736;2024-02-26T05:46:38;5.80;99.90
8820;DHT22;4446;50.876;4.736;2024-02-26T05:49:06;5.80;99.90
8820;DHT22;4446;50.876;4.736;2024-02-26T05:51:33;5.80;99.90
8820;DHT22;4446;50.876;4.736;2024-02-26T05:54:00;5.80;99.90
8820;DHT22;4446;50.876;4.736;2024-02-26T05:56:27;5.80;99.90
8820;DHT22;4446;50.876;4.736;2024-02-26T05:58:54;5.80;99.90
8820;DHT22;4446;50.876;4.736;2024-02-26T06:01:21;5.80;99.90
8820;DHT22;4446;50.876;4.736;2024-02-26T06:03:48;5.80;99.90
8820;DHT22;4446;50.876;4.736;2024-02-26T06:06:17;5.80;99.90
8820;DHT22;4446;50.876;4.736;2024-02-26T06:08:44;5.90;99.90
8820;DHT22;4446;50.876;4.736;2024-02-26T06:11:11;5.90;99.90
8820;DHT22;4446;50.876;4.736;2024-02-26T06:13:38;5.90;99.90
8820;DHT22;4446;50.876;4.736;2024-02-26T06:16:05;5.90;99.90
8820;DHT22;4446;50.876;4.736;2024-02-26T06:18:33;5.80;99.90
8820;DHT22;4446;50.876;4.736;2024-02-26T06:21:00;5.80;99.90
8820;DHT22;4446;50.876;4.736;2024-02-26T06:23:28;5.80;99.90
8820;DHT22;4446;50.876;4.736;2024-02-26T06:25:55;5.80;99.90
8820;DHT22;4446;50.876;4.736;2024-02-26T06:28:22;5.80;99.90
8820;DHT22;4446;50.876;4.736;2024-02-26T06:30:49;5.80;99.90
8820;DHT22;4446;50.876;4.736;2024-02-26T06:33:18;5.80;99.90
8820;DHT22;4446;50.876;4.736;2024-02-26T06:35:45;5.70;99.90
8820;DHT22;4446;50.876;4.736;2024-02-26T06:38:12;5.70;99.90
8820;DHT22;4446;50.876;4.736;2024-02-26T06:40:40;5.70;99.90
8820;DHT22;4446;50.876;4.736;2024-02-26T06:43:07;5.70;99.90
8820;DHT22;4446;50.876;4.736;2024-02-26T06:45:34;5.70;99.90
8820;DHT22;4446;50.876;4.736;2024-02-26T06:48:01;5.60;99.90
8820;DHT22;4446;50.876;4.736;2024-02-26T06:50:29;5.60;99.90
8820;DHT22;4446;50.876;4.736;2024-02-26T06:52:56;5.70;99.90
8820;DHT22;4446;50.876;4.736;2024-02-26T06:55:23;5.70;99.90
8820;DHT22;4446;50.876;4.736;2024-02-26T06:57:50;5.70;99.90
8820;DHT22;4446;50.876;4.736;2024-02-26T07:00:18;5.70;99.90
8820;DHT22;4446;50.876;4.736;2024-02-26T07:02:45;5.70;99.90
8820;DHT22;4446;50.876;4.736;2024-02-26T07:05:12;5.60;99.90
8820;DHT22;4446;50.876;4.736;2024-02-26T07:07:39;5.60;99.90
8820;DHT22;4446;50.876;4.736;2024-02-26T07:10:06;5.70;99.90
8820;DHT22;4446;50.876;4.736;2024-02-26T07:12:33;5.60;99.90
8820;DHT22;4446;50.876;4.736;2024-02-26T07:15:02;5.60;99.90
8820;DHT22;4446;50.876;4.736;2024-02-26T07:17:29;5.60;99.90
8820;DHT22;4446;50.876;4.736;2024-02-26T07:19:56;5.60;99.90
8820;DHT22;4446;50.876;4.736;2024-02-26T07:22:23;5.60;99.90
8820;DHT22;4446;50.876;4.736;2024-02-26T07:24:50;5.70;99.90
8820;DHT22;4446;50.876;4.736;2024-02-26T07:27:18;5.60;99.90
8820;DHT22;4446;50.876;4.736;2024-02-26T07:29:46;5.60;99.90
8820;DHT22;4446;50.876;4.736;2024-02-26T07:32:15;5.60;99.90
8820;DHT22;4446;50.876;4.736;2024-02-26T07:34:42;5.60;99.90
8820;DHT22;4446;50.876;4.736;2024-02-26T07:37:10;5.60;99.90
8820;DHT22;4446;50.876;4.736;2024-02-26T07:39:37;5.60;99.90
8820;DHT22;4446;50.876;4.736;2024-02-26T07:42:04;5.60;99.90
8820;DHT22;4446;50.876;4.736;2024-02-26T07:44:32;5.60;99.90
8820;DHT22;4446;50.876;4.736;2024-02-26T07:46:59;5.70;99.90
8820;DHT22;4446;50.876;4.736;2024-02-26T07:49:27;5.60;99.90
8820;DHT22;4446;50.876;4.736;2024-02-26T07:51:54;5.60;99.90
8820;DHT22;4446;50.876;4.736;2024-02-26T07:54:23;5.70;99.90
8820;DHT22;4446;50.876;4.736;2024-02-26T07:56:50;5.60;99.90
8820;DHT22;4446;50.876;4.736;2024-02-26T07:59:17;5.70;99.90
8820;DHT22;4446;50.876;4.736;2024-02-26T08:01:44;5.60;99.90
8820;DHT22;4446;50.876;4.736;2024-02-26T08:04:15;5.60;99.90
8820;DHT22;4446;50.876;4.736;2024-02-26T08:06:43;5.60;99.90
8820;DHT22;4446;50.876;4.736;2024-02-26T08:09:10;5.60;99.90
8820;DHT22;4446;50.876;4.736;2024-02-26T08:11:38;5.70;99.90
8820;DHT22;4446;50.876;4.736;2024-02-26T08:14:05;5.70;99.90
8820;DHT22;4446;50.876;4.736;2024-02-26T08:16:32;5.70;99.90
8820;DHT22;4446;50.876;4.736;2024-02-26T08:18:59;5.70;99.90
8820;DHT22;4446;50.876;4.736;2024-02-26T08:21:26;5.70;99.90
8820;DHT22;4446;50.876;4.736;2024-02-26T08:23:54;5.70;99.90
8820;DHT22;4446;50.876;4.736;2024-02-26T08:26:21;5.70;99.90
8820;DHT22;4446;50.876;4.736;2024-02-26T08:28:49;5.70;99.90
8820;DHT22;4446;50.876;4.736;2024-02-26T08:31:17;5.70;99.90
8820;DHT22;4446;50.876;4.736;2024-02-26T08:33:44;5.70;99.90
8820;DHT22;4446;50.876;4.736;2024-02-26T08:36:11;5.70;99.90
8820;DHT22;4446;50.876;4.736;2024-02-26T08:38:38;5.70;99.90
8820;DHT22;4446;50.876;4.736;2024-02-26T08:41:07;5.70;99.90
8820;DHT22;4446;50.876;4.736;2024-02-26T08:43:34;5.70;99.90
8820;DHT22;4446;50.876;4.736;2024-02-26T08:46:01;5.70;99.90
8820;DHT22;4446;50.876;4.736;2024-02-26T08:48:28;5.70;99.90
8820;DHT22;4446;50.876;4.736;2024-02-26T08:50:55;5.70;99.90
8820;DHT22;4446;50.876;4.736;2024-02-26T08:53:22;5.70;99.90
8820;DHT22;4446;50.876;4.736;2024-02-26T08:55:49;5.70;99.90
8820;DHT22;4446;50.876;4.736;2024-02-26T08:58:18;5.70;99.90
8820;DHT22;4446;50.876;4.736;2024-02-26T09:00:46;5.70;99.90
8820;DHT22;4446;50.876;4.736;2024-02-26T09:03:13;5.60;99.90
8820;DHT22;4446;50.876;4.736;2024-02-26T09:05:40;5.70;99.90
8820;DHT22;4446;50.876;4.736;2024-02-26T09:08:07;5.60;99.90
8820;DHT22;4446;50.876;4.736;2024-02-26T09:10:34;5.70;99.90
8820;DHT22;4446;50.876;4.736;2024-02-26T09:13:01;5.70;99.90
8820;DHT22;4446;50.876;4.736;2024-02-26T09:15:29;5.60;99.90
8820;DHT22;4446;50.876;4.736;2024-02-26T09:17:56;5.70;99.90
8820;DHT22;4446;50.876;4.736;2024-02-26T09:20:23;5.70;99.90
8820;DHT22;4446;50.876;4.736;2024-02-26T09:22:50;5.70;99.90
8820;DHT22;4446;50.876;4.736;2024-02-26T09:25:17;5.70;99.90
8820;DHT22;4446;50.876;4.736;2024-02-26T09:27:46;5.70;99.90
8820;DHT22;4446;50.876;4.736;2024-02-26T09:30:14;5.70;99.90
8820;DHT22;4446;50.876;4.736;2024-02-26T09:32:46;5.70;99.90
8820;DHT22;4446;50.876;4.736;2024-02-26T09:35:13;5.70;99.90
8820;DHT22;4446;50.876;4.736;2024-02-26T09:37:40;5.70;99.90
8820;DHT22;4446;50.876;4.736;2024-02-26T09:40:09;5.70;99.90
8820;DHT22;4446;50.876;4.736;2024-02-26T09:42:37;5.70;99.90
8820;DHT22;4446;50.876;4.736;2024-02-26T09:45:11;5.70;99.90
8820;DHT22;4446;50.876;4.736;2024-02-26T09:47:39;5.60;99.90
8820;DHT22;4446;50.876;4.736;2024-02-26T09:50:09;5.70;99.90
8820;DHT22;4446;50.876;4.736;2024-02-26T09:52:38;5.70;99.90
8820;DHT22;4446;50.876;4.736;2024-02-26T09:55:08;5.70;99.90
8820;DHT22;4446;50.876;4.736;2024-02-26T09:57:37;5.70;99.90
8820;DHT22;4446;50.876;4.736;2024-02-26T10:00:04;5.70;99.90
8820;DHT22;4446;50.876;4.736;2024-02-26T10:02:36;5.70;99.90
8820;DHT22;4446;50.876;4.736;2024-02-26T10:05:10;5.70;99.90
8820;DHT22;4446;50.876;4.736;2024-02-26T10:07:37;5.70;99.90
8820;DHT22;4446;50.876;4.736;2024-02-26T10:10:05;5.80;99.90
8820;DHT22;4446;50.876;4.736;2024-02-26T10:12:32;5.80;99.90
8820;DHT22;4446;50.876;4.736;2024-02-26T10:14:59;5.80;99.90
8820;DHT22;4446;50.876;4.736;2024-02-26T10:17:26;5.90;99.90
8820;DHT22;4446;50.876;4.736;2024-02-26T10:19:54;5.90;99.90
8820;DHT22;4446;50.876;4.736;2024-02-26T10:22:23;5.90;99.90
8820;DHT22;4446;50.876;4.736;2024-02-26T10:24:50;5.90;99.90
8820;DHT22;4446;50.876;4.736;2024-02-26T10:27:17;5.90;99.90
8820;DHT22;4446;50.876;4.736;2024-02-26T10:29:45;5.90;99.90
8820;DHT22;4446;50.876;4.736;2024-02-26T10:32:13;5.90;99.90
8820;DHT22;4446;50.876;4.736;2024-02-26T10:34:40;5.90;99.90
8820;DHT22;4446;50.876;4.736;2024-02-26T10:37:08;5.90;99.90
8820;DHT22;4446;50.876;4.736;2024-02-26T10:39:37;5.90;99.90
8820;DHT22;4446;50.876;4.736;2024-02-26T10:42:04;5.90;99.90
8820;DHT22;4446;50.876;4.736;2024-02-26T10:44:35;5.90;99.90
8820;DHT22;4446;50.876;4.736;2024-02-26T10:47:02;5.90;99.90
8820;DHT22;4446;50.876;4.736;2024-02-26T10:49:29;5.80;99.90
8820;DHT22;4446;50.876;4.736;2024-02-26T10:51:57;5.80;99.90
8820;DHT22;4446;50.876;4.736;2024-02-26T10:54:26;5.80;99.90
8820;DHT22;4446;50.876;4.736;2024-02-26T10:56:56;5.80;99.90
8820;DHT22;4446;50.876;4.736;2024-02-26T10:59:23;5.80;99.90
8820;DHT22;4446;50.876;4.736;2024-02-26T11:01:50;5.70;99.90
8820;DHT22;4446;50.876;4.736;2024-02-26T11:04:18;5.70;99.90
8820;DHT22;4446;50.876;4.736;2024-02-26T11:06:46;5.70;99.90
8820;DHT22;4446;50.876;4.736;2024-02-26T11:09:15;5.70;99.90
8820;DHT22;4446;50.876;4.736;2024-02-26T11:11:43;5.60;99.90
8820;DHT22;4446;50.876;4.736;2024-02-26T11:14:12;5.60;99.90
8820;DHT22;4446;50.876;4.736;2024-02-26T11:16:40;5.50;99.90
8820;DHT22;4446;50.876;4.736;2024-02-26T11:19:09;5.60;99.90
8820;DHT22;4446;50.876;4.736;2024-02-26T11:21:43;5.60;99.90
8820;DHT22;4446;50.876;4.736;2024-02-26T11:24:12;5.60;99.90
8820;DHT22;4446;50.876;4.736;2024-02-26T11:26:43;5.60;99.90
8820;DHT22;4446;50.876;4.736;2024-02-26T11:29:19;5.60;99.90
8820;DHT22;4446;50.876;4.736;2024-02-26T11:31:48;5.50;99.90
8820;DHT22;4446;50.876;4.736;2024-02-26T11:34:17;5.50;99.90
8820;DHT22;4446;50.876;4.736;2024-02-26T11:36:44;5.50;99.90
8820;DHT22;4446;50.876;4.736;2024-02-26T11:39:12;5.60;99.90
8820;DHT22;4446;50.876;4.736;2024-02-26T11:41:42;5.60;99.90
8820;DHT22;4446;50.876;4.736;2024-02-26T11:44:09;5.60;99.90
8820;DHT22;4446;50.876;4.736;2024-02-26T11:46:41;5.60;99.90
8820;DHT22;4446;50.876;4.736;2024-02-26T11:49:30;5.50;99.90
8820;DHT22;4446;50.876;4.736;2024-02-26T11:51:58;5.50;99.90
8820;DHT22;4446;50.876;4.736;2024-02-26T11:54:53;5.50;99.90
8820;DHT22;4446;50.876;4.736;2024-02-26T11:57:27;5.50;99.90
8820;DHT22;4446;50.876;4.736;2024-02-26T12:00:12;5.50;99.90
8820;DHT22;4446;50.876;4.736;2024-02-26T12:02:44;5.50;99.90
8820;DHT22;4446;50.876;4.736;2024-02-26T12:05:13;5.50;99.90
8820;DHT22;4446;50.876;4.736;2024-02-26T12:07:44;5.50;99.90
8820;DHT22;4446;50.876;4.736;2024-02-26T12:10:30;5.50;99.90
8820;DHT22;4446;50.876;4.736;2024-02-26T12:13:00;5.40;99.90
8820;DHT22;4446;50.876;4.736;2024-02-26T12:15:32;5.60;99.90
8820;DHT22;4446;50.876;4.736;2024-02-26T12:18:03;5.50;99.90
8820;DHT22;4446;50.876;4.736;2024-02-26T12:20:31;5.60;99.90
8820;DHT22;4446;50.876;4.736;2024-02-26T12:22:58;5.50;99.90
8820;DHT22;4446;50.876;4.736;2024-02-26T12:25:26;5.60;99.90
8820;DHT22;4446;50.876;4.736;2024-02-26T12:27:54;5.60;99.90
8820;DHT22;4446;50.876;4.736;2024-02-26T12:30:21;5.60;99.90
8820;DHT22;4446;50.876;4.736;2024-02-26T12:32:49;5.70;99.90
8820;DHT22;4446;50.876;4.736;2024-02-26T12:35:18;5.70;99.90
8820;DHT22;4446;50.876;4.736;2024-02-26T12:37:45;5.70;99.90
8820;DHT22;4446;50.876;4.736;2024-02-26T12:40:13;5.60;99.90
8820;DHT22;4446;50.876;4.736;2024-02-26T12:42:40;5.70;99.90
8820;DHT22;4446;50.876;4.736;2024-02-26T12:45:09;5.70;99.90
8820;DHT22;4446;50.876;4.736;2024-02-26T12:47:37;5.70;99.90
8820;DHT22;4446;50.876;4.736;2024-02-26T12:50:05;5.60;99.90
8820;DHT22;4446;50.876;4.736;2024-02-26T12:52:35;5.70;99.90
8820;DHT22;4446;50.876;4.736;2024-02-26T12:55:03;5.60;99.90
8820;DHT22;4446;50.876;4.736;2024-02-26T12:57:31;5.60;99.90
8820;DHT22;4446;50.876;4.736;2024-02-26T13:00:00;5.60;99.90
8820;DHT22;4446;50.876;4.736;2024-02-26T13:02:28;5.60;99.90
8820;DHT22;4446;50.876;4.736;2024-02-26T13:04:55;5.70;99.90
8820;DHT22;4446;50.876;4.736;2024-02-26T13:07:22;5.70;99.90
8820;DHT22;4446;50.876;4.736;2024-02-26T13:09:51;5.70;99.90
8820;DHT22;4446;50.876;4.736;2024-02-26T13:12:18;5.70;99.90
8820;DHT22;4446;50.876;4.736;2024-02-26T13:14:45;5.80;99.90
8820;DHT22;4446;50.876;4.736;2024-02-26T13:17:12;5.80;99.90
8820;DHT22;4446;50.876;4.736;2024-02-26T13:19:49;5.70;99.90
8820;DHT22;4446;50.876;4.736;2024-02-26T13:22:16;5.70;99.90
8820;DHT22;4446;50.876;4.736;2024-02-26T13:24:43;5.70;99.90
8820;DHT22;4446;50.876;4.736;2024-02-26T13:27:11;5.70;99.90
8820;DHT22;4446;50.876;4.736;2024-02-26T13:29:38;5.70;99.90
8820;DHT22;4446;50.876;4.736;2024-02-26T13:32:05;5.70;99.90
8820;DHT22;4446;50.876;4.736;2024-02-26T13:34:32;5.70;99.90
8820;DHT22;4446;50.876;4.736;2024-02-26T13:37:01;5.60;99.90
8820;DHT22;4446;50.876;4.736;2024-02-26T13:39:28;5.60;99.90
8820;DHT22;4446;50.876;4.736;2024-02-26T13:41:56;5.70;99.90
8820;DHT22;4446;50.876;4.736;2024-02-26T13:44:24;5.70;99.90
8820;DHT22;4446;50.876;4.736;2024-02-26T13:46:51;5.60;99.90
8820;DHT22;4446;50.876;4.736;2024-02-26T13:49:18;5.60;99.90
8820;DHT22;4446;50.876;4.736;2024-02-26T13:51:45;5.70;99.90
8820;DHT22;4446;50.876;4.736;2024-02-26T13:54:12;5.60;99.90
8820;DHT22;4446;50.876;4.736;2024-02-26T13:56:40;5.60;99.90
8820;DHT22;4446;50.876;4.736;2024-02-26T13:59:07;5.60;99.90
8820;DHT22;4446;50.876;4.736;2024-02-26T14:01:35;5.60;99.90
8820;DHT22;4446;50.876;4.736;2024-02-26T14:04:02;5.60;99.90
8820;DHT22;4446;50.876;4.736;2024-02-26T14:06:30;5.70;99.90
8820;DHT22;4446;50.876;4.736;2024-02-26T14:08:57;5.60;99.90
8820;DHT22;4446;50.876;4.736;2024-02-26T14:11:24;5.60;99.90
8820;DHT22;4446;50.876;4.736;2024-02-26T14:13:54;5.60;99.90
8820;DHT22;4446;50.876;4.736;2024-02-26T14:16:21;5.60;99.90
8820;DHT22;4446;50.876;4.736;2024-02-26T14:18:49;5.60;99.90
8820;DHT22;4446;50.876;4.736;2024-02-26T14:21:16;5.60;99.90
8820;DHT22;4446;50.876;4.736;2024-02-26T14:23:43;5.60;99.90
8820;DHT22;4446;50.876;4.736;2024-02-26T14:26:10;5.60;99.90
8820;DHT22;4446;50.876;4.736;2024-02-26T14:28:38;5.50;99.90
8820;DHT22;4446;50.876;4.736;2024-02-26T14:31:06;5.50;99.90
8820;DHT22;4446;50.876;4.736;2024-02-26T14:33:37;5.50;99.90
8820;DHT22;4446;50.876;4.736;2024-02-26T14:36:08;5.60;99.90
8820;DHT22;4446;50.876;4.736;2024-02-26T14:38:35;5.50;99.90
8820;DHT22;4446;50.876;4.736;2024-02-26T14:41:02;5.60;99.90
8820;DHT22;4446;50.876;4.736;2024-02-26T14:43:29;5.50;99.90
8820;DHT22;4446;50.876;4.736;2024-02-26T14:45:57;5.60;99.90
8820;DHT22;4446;50.876;4.736;2024-02-26T14:48:24;5.60;99.90
8820;DHT22;4446;50.876;4.736;2024-02-26T14:50:51;5.60;99.90
8820;DHT22;4446;50.876;4.736;2024-02-26T14:53:20;5.60;99.90
8820;DHT22;4446;50.876;4.736;2024-02-26T14:55:47;5.60;99.90
8820;DHT22;4446;50.876;4.736;2024-02-26T14:58:14;5.60;99.90
8820;DHT22;4446;50.876;4.736;2024-02-26T15:00:40;5.60;99.90
8820;DHT22;4446;50.876;4.736;2024-02-26T15:03:07;5.60;99.90
8820;DHT22;4446;50.876;4.736;2024-02-26T15:05:34;5.60;99.90
8820;DHT22;4446;50.876;4.736;2024-02-26T15:08:01;5.70;99.90
8820;DHT22;4446;50.876;4.736;2024-02-26T15:10:30;5.70;99.90
8820;DHT22;4446;50.876;4.736;2024-02-26T15:12:57;5.70;99.90
8820;DHT22;4446;50.876;4.736;2024-02-26T15:15:24;5.70;99.90
8820;DHT22;4446;50.876;4.736;2024-02-26T15:17:51;5.70;99.90
8820;DHT22;4446;50.876;4.736;2024-02-26T15:20:18;5.70;99.90
8820;DHT22;4446;50.876;4.736;2024-02-26T15:22:45;5.70;99.90
8820;DHT22;4446;50.876;4.736;2024-02-26T15:25:13;5.70;99.90
8820;DHT22;4446;50.876;4.736;2024-02-26T15:27:41;5.70;99.90
8820;DHT22;4446;50.876;4.736;2024-02-26T15:30:09;5.70;99.90
8820;DHT22;4446;50.876;4.736;2024-02-26T15:32:36;5.70;99.90
8820;DHT22;4446;50.876;4.736;2024-02-26T15:35:03;5.70;99.90
8820;DHT22;4446;50.876;4.736;2024-02-26T15:37:30;5.70;99.90
8820;DHT22;4446;50.876;4.736;2024-02-26T15:39:57;5.60;99.90
8820;DHT22;4446;50.876;4.736;2024-02-26T15:42:24;5.70;99.90
8820;DHT22;4446;50.876;4.736;2024-02-26T15:44:53;5.70;99.90
8820;DHT22;4446;50.876;4.736;2024-02-26T15:47:20;5.70;99.90
8820;DHT22;4446;50.876;4.736;2024-02-26T15:49:47;5.70;99.90
8820;DHT22;4446;50.876;4.736;2024-02-26T15:52:14;5.70;99.90
8820;DHT22;4446;50.876;4.736;2024-02-26T15:54:41;5.70;99.90
8820;DHT22;4446;50.876;4.736;2024-02-26T15:57:09;5.70;99.90
8820;DHT22;4446;50.876;4.736;2024-02-26T15:59:38;5.70;99.90
8820;DHT22;4446;50.876;4.736;2024-02-26T16:02:06;5.70;99.90
8820;DHT22;4446;50.876;4.736;2024-02-26T16:04:33;5.70;99.90
8820;DHT22;4446;50.876;4.736;2024-02-26T16:07:03;5.70;99.90
8820;DHT22;4446;50.876;4.736;2024-02-26T16:09:34;5.70;99.90
8820;DHT22;4446;50.876;4.736;2024-02-26T16:12:06;5.70;99.90
8820;DHT22;4446;50.876;4.736;2024-02-26T16:14:49;5.70;99.90
8820;DHT22;4446;50.876;4.736;2024-02-26T16:17:22;5.60;99.90
8820;DHT22;4446;50.876;4.736;2024-02-26T16:19:50;5.60;99.90